sensor_id;sensor_type;location;lat;lon;timestamp;temperature;humidity
43697;DHT22;29301;47.620;19.560;2023-05-25T00:00:00;18.30;99.90
43697;DHT22;29301;47.620;19.560;2023-05-25T00:02:26;18.20;99.90
43697;DHT22;29301;47.620;19.560;2023-05-25T00:04:51;18.20;99.90
43697;DHT22;29301;47.620;19.560;2023-05-25T00:07:17;18.20;99.90
43697;DHT22;29301;47.620;19.560;2023-05-25T00:09:43;18.20;99.90
43697;DHT22;29301;47.620;19.560;2023-05-25T00:12:10;18.20;99.90
43697;DHT22;29301;47.620;19.560;2023-05-25T00:14:36;18.20;99.90
43697;DHT22;29301;47.620;19.560;2023-05-25T00:17:02;18.20;99.90
43697;DHT22;29301;47.620;19.560;2023-05-25T00:19:28;18.20;99.90
43697;DHT22;29301;47.620;19.560;2023-05-25T00:21:57;18.20;99.80
43697;DHT22;29301;47.620;19.560;2023-05-25T00:24:29;18.20;99.90
43697;DHT22;29301;47.620;19.560;2023-05-25T00:26:58;18.10;99.70
43697;DHT22;29301;47.620;19.560;2023-05-25T00:29:24;18.10;99.60
43697;DHT22;29301;47.620;19.560;2023-05-25T00:31:51;18.10;99.50
43697;DHT22;29301;47.620;19.560;2023-05-25T00:34:16;18.00;99.60
43697;DHT22;29301;47.620;19.560;2023-05-25T00:36:42;17.90;99.90
43697;DHT22;29301;47.620;19.560;2023-05-25T00:39:08;17.90;99.90
43697;DHT22;29301;47.620;19.560;2023-05-25T00:41:35;17.80;99.90
43697;DHT22;29301;47.620;19.560;2023-05-25T00:44:06;17.80;99.90
43697;DHT22;29301;47.620;19.560;2023-05-25T00:46:39;17.80;99.90
43697;DHT22;29301;47.620;19.560;2023-05-25T00:49:05;17.80;99.90
43697;DHT22;29301;47.620;19.560;2023-05-25T00:51:30;17.70;99.90
43697;DHT22;29301;47.620;19.560;2023-05-25T00:53:57;17.60;99.90
43697;DHT22;29301;47.620;19.560;2023-05-25T00:56:25;17.50;99.90
43697;DHT22;29301;47.620;19.560;2023-05-25T00:58:54;17.50;99.90
43697;DHT22;29301;47.620;19.560;2023-05-25T01:01:21;17.50;99.90
43697;DHT22;29301;47.620;19.560;2023-05-25T01:03:50;17.40;99.90
43697;DHT22;29301;47.620;19.560;2023-05-25T01:06:22;17.40;99.90
43697;DHT22;29301;47.620;19.560;2023-05-25T01:08:51;17.30;99.90
43697;DHT22;29301;47.620;19.560;2023-05-25T01:11:28;17.20;99.90
43697;DHT22;29301;47.620;19.560;2023-05-25T01:13:57;17.20;99.90
43697;DHT22;29301;47.620;19.560;2023-05-25T01:16:24;17.20;99.90
43697;DHT22;29301;47.620;19.560;2023-05-25T01:18:52;17.20;99.90
43697;DHT22;29301;47.620;19.560;2023-05-25T01:23:54;17.20;99.90
43697;DHT22;29301;47.620;19.560;2023-05-25T01:26:23;17.10;99.90
43697;DHT22;29301;47.620;19.560;2023-05-25T01:28:51;17.10;99.90
43697;DHT22;29301;47.620;19.560;2023-05-25T01:31:21;17.20;99.90
43697;DHT22;29301;47.620;19.560;2023-05-25T01:33:49;17.10;99.90
43697;DHT22;29301;47.620;19.560;2023-05-25T01:36:14;17.10;99.90
43697;DHT22;29301;47.620;19.560;2023-05-25T01:38:40;17.10;99.90
43697;DHT22;29301;47.620;19.560;2023-05-25T01:41:06;17.00;99.90
43697;DHT22;29301;47.620;19.560;2023-05-25T01:43:32;17.00;99.90
43697;DHT22;29301;47.620;19.560;2023-05-25T01:46:17;17.00;99.90
43697;DHT22;29301;47.620;19.560;2023-05-25T01:49:31;16.90;99.90
43697;DHT22;29301;47.620;19.560;2023-05-25T01:54:17;16.90;99.90
43697;DHT22;29301;47.620;19.560;2023-05-25T01:56:45;16.90;99.90
43697;DHT22;29301;47.620;19.560;2023-05-25T01:59:19;16.90;99.90
43697;DHT22;29301;47.620;19.560;2023-05-25T02:01:45;16.90;99.90
43697;DHT22;29301;47.620;19.560;2023-05-25T02:04:11;16.80;99.90
43697;DHT22;29301;47.620;19.560;2023-05-25T02:06:37;16.80;99.90
43697;DHT22;29301;47.620;19.560;2023-05-25T02:09:03;16.80;99.90
43697;DHT22;29301;47.620;19.560;2023-05-25T02:11:29;16.80;99.90
43697;DHT22;29301;47.620;19.560;2023-05-25T02:13:55;16.80;99.90
43697;DHT22;29301;47.620;19.560;2023-05-25T02:16:20;16.80;99.90
43697;DHT22;29301;47.620;19.560;2023-05-25T02:18:46;16.80;99.90
43697;DHT22;29301;47.620;19.560;2023-05-25T02:21:12;16.70;99.90
43697;DHT22;29301;47.620;19.560;2023-05-25T02:23:38;16.70;99.90
43697;DHT22;29301;47.620;19.560;2023-05-25T02:26:03;16.70;99.90
43697;DHT22;29301;47.620;19.560;2023-05-25T02:28:29;16.70;99.90
43697;DHT22;29301;47.620;19.560;2023-05-25T02:30:55;16.70;99.90
43697;DHT22;29301;47.620;19.560;2023-05-25T02:33:21;16.70;99.90
43697;DHT22;29301;47.620;19.560;2023-05-25T02:35:48;16.70;99.90
43697;DHT22;29301;47.620;19.560;2023-05-25T02:38:13;16.70;99.90
43697;DHT22;29301;47.620;19.560;2023-05-25T02:40:39;16.60;99.90
43697;DHT22;29301;47.620;19.560;2023-05-25T02:43:05;16.60;99.90
43697;DHT22;29301;47.620;19.560;2023-05-25T02:45:30;16.60;99.90
43697;DHT22;29301;47.620;19.560;2023-05-25T02:47:56;16.60;99.90
43697;DHT22;29301;47.620;19.560;2023-05-25T02:50:22;16.60;99.90
43697;DHT22;29301;47.620;19.560;2023-05-25T02:52:47;16.50;99.90
43697;DHT22;29301;47.620;19.560;2023-05-25T02:55:13;16.50;99.90
43697;DHT22;29301;47.620;19.560;2023-05-25T02:57:39;16.50;99.90
43697;DHT22;29301;47.620;19.560;2023-05-25T03:00:05;16.50;99.90
43697;DHT22;29301;47.620;19.560;2023-05-25T03:02:32;16.50;99.90
43697;DHT22;29301;47.620;19.560;2023-05-25T03:04:58;16.50;99.90
43697;DHT22;29301;47.620;19.560;2023-05-25T03:07:24;16.40;99.90
43697;DHT22;29301;47.620;19.560;2023-05-25T03:09:51;16.40;99.90
43697;DHT22;29301;47.620;19.560;2023-05-25T03:12:17;16.50;99.90
43697;DHT22;29301;47.620;19.560;2023-05-25T03:14:43;16.50;99.90
43697;DHT22;29301;47.620;19.560;2023-05-25T03:17:08;16.50;99.90
43697;DHT22;29301;47.620;19.560;2023-05-25T03:19:34;16.40;99.90
43697;DHT22;29301;47.620;19.560;2023-05-25T03:22:03;16.40;99.90
43697;DHT22;29301;47.620;19.560;2023-05-25T03:24:28;16.40;99.90
43697;DHT22;29301;47.620;19.560;2023-05-25T03:26:54;16.40;99.90
43697;DHT22;29301;47.620;19.560;2023-05-25T03:29:20;16.40;99.90
43697;DHT22;29301;47.620;19.560;2023-05-25T03:31:46;16.40;99.90
43697;DHT22;29301;47.620;19.560;2023-05-25T03:34:12;16.40;99.90
43697;DHT22;29301;47.620;19.560;2023-05-25T03:36:37;16.30;99.90
43697;DHT22;29301;47.620;19.560;2023-05-25T03:39:06;16.30;99.90
43697;DHT22;29301;47.620;19.560;2023-05-25T03:41:34;16.30;99.90
43697;DHT22;29301;47.620;19.560;2023-05-25T03:44:00;16.30;99.90
43697;DHT22;29301;47.620;19.560;2023-05-25T03:46:25;16.40;99.90
43697;DHT22;29301;47.620;19.560;2023-05-25T03:48:51;16.40;99.90
43697;DHT22;29301;47.620;19.560;2023-05-25T03:51:16;16.40;99.90
43697;DHT22;29301;47.620;19.560;2023-05-25T03:53:42;16.30;99.90
43697;DHT22;29301;47.620;19.560;2023-05-25T03:56:08;16.40;99.90
43697;DHT22;29301;47.620;19.560;2023-05-25T03:58:33;16.40;99.90
43697;DHT22;29301;47.620;19.560;2023-05-25T04:00:59;16.40;99.90
43697;DHT22;29301;47.620;19.560;2023-05-25T04:03:25;16.40;99.90
43697;DHT22;29301;47.620;19.560;2023-05-25T04:05:51;16.40;99.90
43697;DHT22;29301;47.620;19.560;2023-05-25T04:08:17;16.40;99.90
43697;DHT22;29301;47.620;19.560;2023-05-25T04:10:47;16.40;99.90
43697;DHT22;29301;47.620;19.560;2023-05-25T04:13:13;16.40;99.90
43697;DHT22;29301;47.620;19.560;2023-05-25T04:15:39;16.50;99.90
43697;DHT22;29301;47.620;19.560;2023-05-25T04:18:05;16.40;99.90
43697;DHT22;29301;47.620;19.560;2023-05-25T04:20:30;16.40;99.90
43697;DHT22;29301;47.620;19.560;2023-05-25T04:22:56;16.40;99.90
43697;DHT22;29301;47.620;19.560;2023-05-25T04:25:22;16.40;99.90
43697;DHT22;29301;47.620;19.560;2023-05-25T04:27:48;16.40;99.90
43697;DHT22;29301;47.620;19.560;2023-05-25T04:30:14;16.40;99.90
43697;DHT22;29301;47.620;19.560;2023-05-25T04:32:40;16.40;99.90
43697;DHT22;29301;47.620;19.560;2023-05-25T04:35:06;16.40;99.90
43697;DHT22;29301;47.620;19.560;2023-05-25T04:37:32;16.40;99.90
43697;DHT22;29301;47.620;19.560;2023-05-25T04:39:58;16.50;99.90
43697;DHT22;29301;47.620;19.560;2023-05-25T04:42:24;16.50;99.90
43697;DHT22;29301;47.620;19.560;2023-05-25T04:44:50;16.60;99.90
43697;DHT22;29301;47.620;19.560;2023-05-25T04:47:23;16.60;99.90
43697;DHT22;29301;47.620;19.560;2023-05-25T04:49:49;16.70;99.90
43697;DHT22;29301;47.620;19.560;2023-05-25T04:52:15;16.80;99.90
43697;DHT22;29301;47.620;19.560;2023-05-25T04:54:41;16.80;99.90
43697;DHT22;29301;47.620;19.560;2023-05-25T04:57:07;16.80;99.90
43697;DHT22;29301;47.620;19.560;2023-05-25T04:59:33;16.90;99.90
43697;DHT22;29301;47.620;19.560;2023-05-25T05:01:59;16.80;99.90
43697;DHT22;29301;47.620;19.560;2023-05-25T05:04:24;16.90;99.90
43697;DHT22;29301;47.620;19.560;2023-05-25T05:06:50;16.90;99.90
43697;DHT22;29301;47.620;19.560;2023-05-25T05:09:16;16.90;99.90
43697;DHT22;29301;47.620;19.560;2023-05-25T05:11:41;17.00;99.90
43697;DHT22;29301;47.620;19.560;2023-05-25T05:14:07;17.10;99.90
43697;DHT22;29301;47.620;19.560;2023-05-25T05:16:33;17.10;99.90
43697;DHT22;29301;47.620;19.560;2023-05-25T05:19:02;17.20;99.90
43697;DHT22;29301;47.620;19.560;2023-05-25T05:21:28;17.30;99.90
43697;DHT22;29301;47.620;19.560;2023-05-25T05:23:53;17.30;99.90
43697;DHT22;29301;47.620;19.560;2023-05-25T05:26:20;17.30;99.90
43697;DHT22;29301;47.620;19.560;2023-05-25T05:28:47;17.40;99.90
43697;DHT22;29301;47.620;19.560;2023-05-25T05:31:13;17.50;99.90
43697;DHT22;29301;47.620;19.560;2023-05-25T05:33:41;17.50;99.90
43697;DHT22;29301;47.620;19.560;2023-05-25T05:36:07;17.50;99.90
43697;DHT22;29301;47.620;19.560;2023-05-25T05:38:33;17.60;99.90
43697;DHT22;29301;47.620;19.560;2023-05-25T05:40:59;17.70;99.90
43697;DHT22;29301;47.620;19.560;2023-05-25T05:43:26;17.80;99.90
43697;DHT22;29301;47.620;19.560;2023-05-25T05:45:51;17.90;99.90
43697;DHT22;29301;47.620;19.560;2023-05-25T05:48:17;17.90;99.90
43697;DHT22;29301;47.620;19.560;2023-05-25T05:50:43;18.00;99.90
43697;DHT22;29301;47.620;19.560;2023-05-25T05:53:08;18.20;99.90
43697;DHT22;29301;47.620;19.560;2023-05-25T05:55:35;18.20;99.90
43697;DHT22;29301;47.620;19.560;2023-05-25T05:58:01;18.30;99.90
43697;DHT22;29301;47.620;19.560;2023-05-25T06:00:26;18.40;99.90
43697;DHT22;29301;47.620;19.560;2023-05-25T06:02:52;18.50;99.90
43697;DHT22;29301;47.620;19.560;2023-05-25T06:05:18;18.60;98.50
43697;DHT22;29301;47.620;19.560;2023-05-25T06:07:45;18.70;97.40
43697;DHT22;29301;47.620;19.560;2023-05-25T06:10:10;18.90;96.50
43697;DHT22;29301;47.620;19.560;2023-05-25T06:12:36;19.00;95.20
43697;DHT22;29301;47.620;19.560;2023-05-25T06:15:02;19.20;94.10
43697;DHT22;29301;47.620;19.560;2023-05-25T06:17:29;19.30;92.20
43697;DHT22;29301;47.620;19.560;2023-05-25T06:19:55;19.40;92.50
43697;DHT22;29301;47.620;19.560;2023-05-25T06:22:20;19.50;92.10
43697;DHT22;29301;47.620;19.560;2023-05-25T06:24:48;19.70;88.80
43697;DHT22;29301;47.620;19.560;2023-05-25T06:27:13;19.80;88.60
43697;DHT22;29301;47.620;19.560;2023-05-25T06:29:39;20.00;89.10
43697;DHT22;29301;47.620;19.560;2023-05-25T06:32:05;20.20;83.30
43697;DHT22;29301;47.620;19.560;2023-05-25T06:34:30;20.40;81.40
43697;DHT22;29301;47.620;19.560;2023-05-25T06:36:56;20.50;79.40
43697;DHT22;29301;47.620;19.560;2023-05-25T06:39:22;20.60;78.50
43697;DHT22;29301;47.620;19.560;2023-05-25T06:41:47;20.80;77.30
43697;DHT22;29301;47.620;19.560;2023-05-25T06:44:15;20.90;76.30
43697;DHT22;29301;47.620;19.560;2023-05-25T06:46:40;21.10;75.20
43697;DHT22;29301;47.620;19.560;2023-05-25T06:49:06;21.20;73.40
43697;DHT22;29301;47.620;19.560;2023-05-25T06:51:32;21.30;71.40
43697;DHT22;29301;47.620;19.560;2023-05-25T06:53:58;21.40;71.10
43697;DHT22;29301;47.620;19.560;2023-05-25T06:56:24;21.50;68.30
43697;DHT22;29301;47.620;19.560;2023-05-25T06:58:50;21.60;66.90
43697;DHT22;29301;47.620;19.560;2023-05-25T07:01:16;21.80;67.00
43697;DHT22;29301;47.620;19.560;2023-05-25T07:03:42;22.00;64.90
43697;DHT22;29301;47.620;19.560;2023-05-25T07:06:08;22.30;64.50
43697;DHT22;29301;47.620;19.560;2023-05-25T07:08:35;22.30;62.80
43697;DHT22;29301;47.620;19.560;2023-05-25T07:11:01;22.40;62.40
43697;DHT22;29301;47.620;19.560;2023-05-25T07:13:27;22.40;60.40
43697;DHT22;29301;47.620;19.560;2023-05-25T07:15:53;22.50;60.70
43697;DHT22;29301;47.620;19.560;2023-05-25T07:18:18;22.50;60.00
43697;DHT22;29301;47.620;19.560;2023-05-25T07:20:44;22.50;57.10
43697;DHT22;29301;47.620;19.560;2023-05-25T07:23:11;22.50;57.90
43697;DHT22;29301;47.620;19.560;2023-05-25T07:25:37;22.80;58.40
43697;DHT22;29301;47.620;19.560;2023-05-25T07:28:04;23.10;55.80
43697;DHT22;29301;47.620;19.560;2023-05-25T07:30:30;23.10;55.30
43697;DHT22;29301;47.620;19.560;2023-05-25T07:32:55;23.20;56.40
43697;DHT22;29301;47.620;19.560;2023-05-25T07:35:23;23.40;55.30
43697;DHT22;29301;47.620;19.560;2023-05-25T07:38:02;23.70;53.90
43697;DHT22;29301;47.620;19.560;2023-05-25T07:40:29;23.80;54.20
43697;DHT22;29301;47.620;19.560;2023-05-25T07:42:55;23.90;54.30
43697;DHT22;29301;47.620;19.560;2023-05-25T07:45:21;24.10;53.10
43697;DHT22;29301;47.620;19.560;2023-05-25T07:47:46;24.10;52.60
43697;DHT22;29301;47.620;19.560;2023-05-25T07:50:15;24.20;51.60
43697;DHT22;29301;47.620;19.560;2023-05-25T07:52:41;24.20;49.70
43697;DHT22;29301;47.620;19.560;2023-05-25T07:55:07;24.10;49.40
43697;DHT22;29301;47.620;19.560;2023-05-25T07:57:33;24.00;49.60
43697;DHT22;29301;47.620;19.560;2023-05-25T07:59:59;24.10;50.00
43697;DHT22;29301;47.620;19.560;2023-05-25T08:02:25;24.20;50.60
43697;DHT22;29301;47.620;19.560;2023-05-25T08:04:51;24.40;50.50
43697;DHT22;29301;47.620;19.560;2023-05-25T08:07:19;24.60;49.40
43697;DHT22;29301;47.620;19.560;2023-05-25T08:09:45;24.80;48.30
43697;DHT22;29301;47.620;19.560;2023-05-25T08:12:11;24.80;47.30
43697;DHT22;29301;47.620;19.560;2023-05-25T08:14:37;24.70;47.10
43697;DHT22;29301;47.620;19.560;2023-05-25T08:17:03;24.80;47.00
43697;DHT22;29301;47.620;19.560;2023-05-25T08:19:29;25.00;46.60
43697;DHT22;29301;47.620;19.560;2023-05-25T08:21:58;24.90;46.60
43697;DHT22;29301;47.620;19.560;2023-05-25T08:24:24;25.00;46.60
43697;DHT22;29301;47.620;19.560;2023-05-25T08:26:50;25.00;46.00
43697;DHT22;29301;47.620;19.560;2023-05-25T08:29:15;25.10;46.00
43697;DHT22;29301;47.620;19.560;2023-05-25T08:31:41;25.20;45.40
43697;DHT22;29301;47.620;19.560;2023-05-25T08:34:09;25.40;45.90
43697;DHT22;29301;47.620;19.560;2023-05-25T08:36:34;25.40;43.70
43697;DHT22;29301;47.620;19.560;2023-05-25T08:39:01;25.20;44.20
43697;DHT22;29301;47.620;19.560;2023-05-25T08:41:27;25.30;44.40
43697;DHT22;29301;47.620;19.560;2023-05-25T08:43:54;25.40;43.80
43697;DHT22;29301;47.620;19.560;2023-05-25T08:46:29;25.40;43.80
43697;DHT22;29301;47.620;19.560;2023-05-25T08:49:08;25.60;41.50
43697;DHT22;29301;47.620;19.560;2023-05-25T08:51:42;25.60;41.20
43697;DHT22;29301;47.620;19.560;2023-05-25T08:54:13;25.60;40.80
43697;DHT22;29301;47.620;19.560;2023-05-25T08:56:51;25.40;40.30
43697;DHT22;29301;47.620;19.560;2023-05-25T09:04:54;25.80;40.80
43697;DHT22;29301;47.620;19.560;2023-05-25T09:07:20;25.90;41.40
43697;DHT22;29301;47.620;19.560;2023-05-25T09:09:47;26.00;40.40
43697;DHT22;29301;47.620;19.560;2023-05-25T09:12:14;25.80;40.90
43697;DHT22;29301;47.620;19.560;2023-05-25T09:14:40;25.70;42.30
43697;DHT22;29301;47.620;19.560;2023-05-25T09:17:16;25.70;41.60
43697;DHT22;29301;47.620;19.560;2023-05-25T09:19:43;26.00;41.60
43697;DHT22;29301;47.620;19.560;2023-05-25T09:22:09;26.20;41.70
43697;DHT22;29301;47.620;19.560;2023-05-25T09:24:35;26.40;40.70
43697;DHT22;29301;47.620;19.560;2023-05-25T09:27:02;26.30;40.10
43697;DHT22;29301;47.620;19.560;2023-05-25T09:29:28;26.40;40.00
43697;DHT22;29301;47.620;19.560;2023-05-25T09:31:55;26.30;38.80
43697;DHT22;29301;47.620;19.560;2023-05-25T09:34:21;26.20;40.00
43697;DHT22;29301;47.620;19.560;2023-05-25T09:36:46;26.30;41.30
43697;DHT22;29301;47.620;19.560;2023-05-25T09:39:12;26.50;39.90
43697;DHT22;29301;47.620;19.560;2023-05-25T09:41:41;26.60;38.90
43697;DHT22;29301;47.620;19.560;2023-05-25T09:44:07;26.80;38.90
43697;DHT22;29301;47.620;19.560;2023-05-25T09:46:33;26.90;39.60
43697;DHT22;29301;47.620;19.560;2023-05-25T09:49:03;27.10;39.10
43697;DHT22;29301;47.620;19.560;2023-05-25T09:51:29;26.90;39.90
43697;DHT22;29301;47.620;19.560;2023-05-25T09:54:02;26.80;41.00
43697;DHT22;29301;47.620;19.560;2023-05-25T09:56:30;26.60;40.60
43697;DHT22;29301;47.620;19.560;2023-05-25T09:58:56;26.60;41.00
43697;DHT22;29301;47.620;19.560;2023-05-25T10:01:23;26.60;40.20
43697;DHT22;29301;47.620;19.560;2023-05-25T10:03:48;26.50;40.70
43697;DHT22;29301;47.620;19.560;2023-05-25T10:06:24;26.40;40.70
43697;DHT22;29301;47.620;19.560;2023-05-25T10:08:51;26.60;40.30
43697;DHT22;29301;47.620;19.560;2023-05-25T10:11:18;26.70;40.10
43697;DHT22;29301;47.620;19.560;2023-05-25T10:13:45;26.70;40.00
43697;DHT22;29301;47.620;19.560;2023-05-25T10:16:16;26.90;39.40
43697;DHT22;29301;47.620;19.560;2023-05-25T10:18:56;26.90;37.90
43697;DHT22;29301;47.620;19.560;2023-05-25T10:21:24;26.90;39.20
43697;DHT22;29301;47.620;19.560;2023-05-25T10:23:53;26.80;38.30
43697;DHT22;29301;47.620;19.560;2023-05-25T10:26:25;26.60;38.90
43697;DHT22;29301;47.620;19.560;2023-05-25T10:28:55;26.70;39.00
43697;DHT22;29301;47.620;19.560;2023-05-25T10:31:21;26.90;39.00
43697;DHT22;29301;47.620;19.560;2023-05-25T10:33:47;26.80;38.80
43697;DHT22;29301;47.620;19.560;2023-05-25T10:36:13;26.70;38.70
43697;DHT22;29301;47.620;19.560;2023-05-25T10:38:39;26.80;39.40
43697;DHT22;29301;47.620;19.560;2023-05-25T10:41:08;26.70;37.90
43697;DHT22;29301;47.620;19.560;2023-05-25T10:43:35;26.60;38.70
43697;DHT22;29301;47.620;19.560;2023-05-25T10:46:01;26.60;38.60
43697;DHT22;29301;47.620;19.560;2023-05-25T10:48:37;26.80;38.70
43697;DHT22;29301;47.620;19.560;2023-05-25T10:51:04;26.80;38.70
43697;DHT22;29301;47.620;19.560;2023-05-25T10:53:31;26.80;38.90
43697;DHT22;29301;47.620;19.560;2023-05-25T10:58:26;27.30;38.10
43697;DHT22;29301;47.620;19.560;2023-05-25T11:01:01;27.60;36.10
43697;DHT22;29301;47.620;19.560;2023-05-25T11:06:15;27.30;36.60
43697;DHT22;29301;47.620;19.560;2023-05-25T11:09:00;27.20;36.20
43697;DHT22;29301;47.620;19.560;2023-05-25T11:14:30;27.30;37.80
43697;DHT22;29301;47.620;19.560;2023-05-25T11:22:31;27.40;37.30
43697;DHT22;29301;47.620;19.560;2023-05-25T11:24:58;27.10;37.40
43697;DHT22;29301;47.620;19.560;2023-05-25T11:27:31;27.10;37.10
43697;DHT22;29301;47.620;19.560;2023-05-25T11:29:57;27.30;37.00
43697;DHT22;29301;47.620;19.560;2023-05-25T11:32:24;27.50;36.90
43697;DHT22;29301;47.620;19.560;2023-05-25T11:34:55;27.40;35.00
43697;DHT22;29301;47.620;19.560;2023-05-25T11:37:22;27.40;35.70
43697;DHT22;29301;47.620;19.560;2023-05-25T11:39:53;27.30;34.60
43697;DHT22;29301;47.620;19.560;2023-05-25T11:42:20;27.00;37.30
43697;DHT22;29301;47.620;19.560;2023-05-25T11:44:46;27.30;38.30
43697;DHT22;29301;47.620;19.560;2023-05-25T11:47:13;27.60;37.90
43697;DHT22;29301;47.620;19.560;2023-05-25T11:49:46;27.80;37.30
43697;DHT22;29301;47.620;19.560;2023-05-25T11:52:15;27.70;35.90
43697;DHT22;29301;47.620;19.560;2023-05-25T11:54:41;27.30;35.70
43697;DHT22;29301;47.620;19.560;2023-05-25T12:02:19;27.10;35.60
43697;DHT22;29301;47.620;19.560;2023-05-25T12:04:55;27.00;35.90
43697;DHT22;29301;47.620;19.560;2023-05-25T12:07:21;27.00;37.10
43697;DHT22;29301;47.620;19.560;2023-05-25T12:09:47;27.00;37.50
43697;DHT22;29301;47.620;19.560;2023-05-25T12:12:12;26.80;37.90
43697;DHT22;29301;47.620;19.560;2023-05-25T12:14:48;26.70;37.90
43697;DHT22;29301;47.620;19.560;2023-05-25T12:17:16;26.70;37.90
43697;DHT22;29301;47.620;19.560;2023-05-25T12:19:42;26.70;37.50
43697;DHT22;29301;47.620;19.560;2023-05-25T12:22:09;26.80;37.20
43697;DHT22;29301;47.620;19.560;2023-05-25T12:24:35;26.70;36.00
43697;DHT22;29301;47.620;19.560;2023-05-25T12:27:00;26.80;36.60
43697;DHT22;29301;47.620;19.560;2023-05-25T12:29:28;26.90;35.60
43697;DHT22;29301;47.620;19.560;2023-05-25T12:32:01;26.90;35.30
43697;DHT22;29301;47.620;19.560;2023-05-25T12:34:28;27.00;35.10
43697;DHT22;29301;47.620;19.560;2023-05-25T12:36:55;26.80;35.60
43697;DHT22;29301;47.620;19.560;2023-05-25T12:39:31;26.90;36.50
43697;DHT22;29301;47.620;19.560;2023-05-25T12:42:01;27.00;35.70
43697;DHT22;29301;47.620;19.560;2023-05-25T12:44:36;27.10;34.80
43697;DHT22;29301;47.620;19.560;2023-05-25T12:49:36;26.80;36.70
43697;DHT22;29301;47.620;19.560;2023-05-25T12:52:04;26.90;36.60
43697;DHT22;29301;47.620;19.560;2023-05-25T12:54:45;27.00;35.90
43697;DHT22;29301;47.620;19.560;2023-05-25T12:57:15;27.00;36.20
43697;DHT22;29301;47.620;19.560;2023-05-25T12:59:43;27.10;36.90
43697;DHT22;29301;47.620;19.560;2023-05-25T13:02:10;27.30;36.40
43697;DHT22;29301;47.620;19.560;2023-05-25T13:04:37;27.30;36.00
43697;DHT22;29301;47.620;19.560;2023-05-25T13:07:04;27.40;35.70
43697;DHT22;29301;47.620;19.560;2023-05-25T13:09:30;27.50;36.00
43697;DHT22;29301;47.620;19.560;2023-05-25T13:11:57;27.70;34.60
43697;DHT22;29301;47.620;19.560;2023-05-25T13:14:24;27.80;35.40
43697;DHT22;29301;47.620;19.560;2023-05-25T13:16:51;27.70;35.60
43697;DHT22;29301;47.620;19.560;2023-05-25T13:19:18;27.60;35.50
43697;DHT22;29301;47.620;19.560;2023-05-25T13:21:45;27.60;34.80
43697;DHT22;29301;47.620;19.560;2023-05-25T13:24:12;27.40;36.20
43697;DHT22;29301;47.620;19.560;2023-05-25T13:26:38;27.50;35.90
43697;DHT22;29301;47.620;19.560;2023-05-25T13:29:03;27.50;35.20
43697;DHT22;29301;47.620;19.560;2023-05-25T13:31:29;27.60;35.00
43697;DHT22;29301;47.620;19.560;2023-05-25T13:33:56;27.60;34.30
43697;DHT22;29301;47.620;19.560;2023-05-25T13:36:22;27.60;34.70
43697;DHT22;29301;47.620;19.560;2023-05-25T13:38:48;27.50;35.00
43697;DHT22;29301;47.620;19.560;2023-05-25T13:41:14;27.50;34.10
43697;DHT22;29301;47.620;19.560;2023-05-25T13:43:41;27.50;34.10
43697;DHT22;29301;47.620;19.560;2023-05-25T13:46:06;27.60;33.80
43697;DHT22;29301;47.620;19.560;2023-05-25T13:48:32;27.40;33.50
43697;DHT22;29301;47.620;19.560;2023-05-25T13:50:58;27.30;35.40
43697;DHT22;29301;47.620;19.560;2023-05-25T13:53:24;27.00;36.00
43697;DHT22;29301;47.620;19.560;2023-05-25T13:55:50;27.10;35.60
43697;DHT22;29301;47.620;19.560;2023-05-25T13:58:15;27.00;35.40
43697;DHT22;29301;47.620;19.560;2023-05-25T14:00:41;27.10;35.50
43697;DHT22;29301;47.620;19.560;2023-05-25T14:03:07;27.00;34.70
43697;DHT22;29301;47.620;19.560;2023-05-25T14:05:32;27.10;35.50
43697;DHT22;29301;47.620;19.560;2023-05-25T14:07:58;27.20;36.30
43697;DHT22;29301;47.620;19.560;2023-05-25T14:10:29;27.30;35.70
43697;DHT22;29301;47.620;19.560;2023-05-25T14:12:55;27.20;36.60
43697;DHT22;29301;47.620;19.560;2023-05-25T14:15:21;27.30;36.50
43697;DHT22;29301;47.620;19.560;2023-05-25T14:17:46;27.40;36.20
43697;DHT22;29301;47.620;19.560;2023-05-25T14:20:12;27.50;35.20
43697;DHT22;29301;47.620;19.560;2023-05-25T14:22:45;27.50;35.20
43697;DHT22;29301;47.620;19.560;2023-05-25T14:25:11;27.50;35.40
43697;DHT22;29301;47.620;19.560;2023-05-25T14:27:36;27.50;35.30
43697;DHT22;29301;47.620;19.560;2023-05-25T14:30:02;27.50;35.60
43697;DHT22;29301;47.620;19.560;2023-05-25T14:32:28;27.50;35.50
43697;DHT22;29301;47.620;19.560;2023-05-25T14:34:53;27.60;35.60
43697;DHT22;29301;47.620;19.560;2023-05-25T14:37:19;27.70;36.20
43697;DHT22;29301;47.620;19.560;2023-05-25T14:39:45;27.80;36.00
43697;DHT22;29301;47.620;19.560;2023-05-25T14:42:10;27.80;35.60
43697;DHT22;29301;47.620;19.560;2023-05-25T14:44:36;27.80;35.90
43697;DHT22;29301;47.620;19.560;2023-05-25T14:47:02;27.60;35.00
43697;DHT22;29301;47.620;19.560;2023-05-25T14:49:28;27.50;35.00
43697;DHT22;29301;47.620;19.560;2023-05-25T14:51:53;27.30;35.30
43697;DHT22;29301;47.620;19.560;2023-05-25T14:54:19;27.10;35.30
43697;DHT22;29301;47.620;19.560;2023-05-25T14:56:46;27.10;35.90
43697;DHT22;29301;47.620;19.560;2023-05-25T14:59:11;27.10;36.30
43697;DHT22;29301;47.620;19.560;2023-05-25T15:01:37;27.20;36.80
43697;DHT22;29301;47.620;19.560;2023-05-25T15:04:03;27.40;36.00
43697;DHT22;29301;47.620;19.560;2023-05-25T15:06:29;27.50;36.70
43697;DHT22;29301;47.620;19.560;2023-05-25T15:08:56;27.60;36.80
43697;DHT22;29301;47.620;19.560;2023-05-25T15:11:22;27.70;36.10
43697;DHT22;29301;47.620;19.560;2023-05-25T15:13:47;27.70;36.10
43697;DHT22;29301;47.620;19.560;2023-05-25T15:16:14;27.70;35.70
43697;DHT22;29301;47.620;19.560;2023-05-25T15:18:41;27.70;35.70
43697;DHT22;29301;47.620;19.560;2023-05-25T15:21:07;27.60;34.80
43697;DHT22;29301;47.620;19.560;2023-05-25T15:23:33;27.60;35.50
43697;DHT22;29301;47.620;19.560;2023-05-25T15:25:58;27.60;35.80
43697;DHT22;29301;47.620;19.560;2023-05-25T15:28:31;27.50;35.60
43697;DHT22;29301;47.620;19.560;2023-05-25T15:30:57;27.30;36.10
43697;DHT22;29301;47.620;19.560;2023-05-25T15:33:23;27.10;36.50
43697;DHT22;29301;47.620;19.560;2023-05-25T15:35:49;27.20;36.90
43697;DHT22;29301;47.620;19.560;2023-05-25T15:38:14;27.20;36.20
43697;DHT22;29301;47.620;19.560;2023-05-25T15:40:40;27.20;36.30
43697;DHT22;29301;47.620;19.560;2023-05-25T15:43:06;27.10;36.30
43697;DHT22;29301;47.620;19.560;2023-05-25T15:45:31;27.10;36.50